sensor_id;sensor_type;location;lat;lon;timestamp;pressure;altitude;pressure_sealevel;temperature;humidity
73525;BME280;61776;56.194;44.160;2022-09-09T00:15:43;100984.53;;;6.20;77.76
73525;BME280;61776;56.194;44.160;2022-09-09T00:21:04;100991.44;;;6.20;77.87
73525;BME280;61776;56.194;44.160;2022-09-09T00:23:39;100991.63;;;6.17;77.89
73525;BME280;61776;56.194;44.160;2022-09-09T00:28:34;100998.13;;;6.08;78.14
73525;BME280;61776;56.194;44.160;2022-09-09T00:31:25;100998.28;;;6.05;78.32
73525;BME280;61776;56.194;44.160;2022-09-09T00:33:53;101004.34;;;6.04;78.22
73525;BME280;61776;56.194;44.160;2022-09-09T00:36:22;101013.00;;;6.03;78.16
73525;BME280;61776;56.194;44.160;2022-09-09T00:39:00;101007.28;;;5.98;78.49
73525;BME280;61776;56.194;44.160;2022-09-09T00:42:40;101008.09;;;5.98;78.60
73525;BME280;61776;56.194;44.160;2022-09-09T00:44:37;101004.69;;;5.98;78.28
73525;BME280;61776;56.194;44.160;2022-09-09T00:53:24;101018.59;;;5.95;78.10
73525;BME280;61776;56.194;44.160;2022-09-09T00:58:34;101010.88;;;5.95;78.23
73525;BME280;61776;56.194;44.160;2022-09-09T01:01:19;101021.22;;;5.94;78.08
73525;BME280;61776;56.194;44.160;2022-09-09T01:03:55;101021.78;;;5.83;78.16
73525;BME280;61776;56.194;44.160;2022-09-09T01:06:34;101018.47;;;5.81;78.35
73525;BME280;61776;56.194;44.160;2022-09-09T01:09:57;101026.34;;;5.78;78.73
73525;BME280;61776;56.194;44.160;2022-09-09T01:12:42;101025.53;;;5.77;78.63
73525;BME280;61776;56.194;44.160;2022-09-09T01:15:27;101028.31;;;5.74;78.52
73525;BME280;61776;56.194;44.160;2022-09-09T01:18:05;101028.38;;;5.73;78.49
73525;BME280;61776;56.194;44.160;2022-09-09T01:20:46;101029.94;;;5.75;78.51
73525;BME280;61776;56.194;44.160;2022-09-09T01:28:59;101036.19;;;5.71;78.44
73525;BME280;61776;56.194;44.160;2022-09-09T01:31:36;101032.34;;;5.62;78.62
73525;BME280;61776;56.194;44.160;2022-09-09T01:34:09;101034.91;;;5.62;78.95
73525;BME280;61776;56.194;44.160;2022-09-09T01:39:20;101049.97;;;5.70;78.81
73525;BME280;61776;56.194;44.160;2022-09-09T01:41:55;101045.00;;;5.67;78.36
73525;BME280;61776;56.194;44.160;2022-09-09T01:44:22;101047.81;;;5.62;78.72
73525;BME280;61776;56.194;44.160;2022-09-09T01:46:48;101041.75;;;5.63;79.02
73525;BME280;61776;56.194;44.160;2022-09-09T01:49:17;101043.41;;;5.64;78.66
73525;BME280;61776;56.194;44.160;2022-09-09T01:51:46;101047.56;;;5.67;78.52
73525;BME280;61776;56.194;44.160;2022-09-09T01:54:13;101049.97;;;5.70;78.71
73525;BME280;61776;56.194;44.160;2022-09-09T02:02:15;101056.78;;;5.71;78.54
73525;BME280;61776;56.194;44.160;2022-09-09T02:07:47;101064.94;;;5.63;78.54
73525;BME280;61776;56.194;44.160;2022-09-09T02:11:32;101068.47;;;5.61;78.53
73525;BME280;61776;56.194;44.160;2022-09-09T02:13:55;101062.59;;;5.59;78.59
73525;BME280;61776;56.194;44.160;2022-09-09T02:19:20;101068.41;;;5.62;78.68
73525;BME280;61776;56.194;44.160;2022-09-09T02:22:04;101073.00;;;5.57;78.74
73525;BME280;61776;56.194;44.160;2022-09-09T02:24:33;101073.06;;;5.56;78.73
73525;BME280;61776;56.194;44.160;2022-09-09T02:27:20;101079.03;;;5.56;78.78
73525;BME280;61776;56.194;44.160;2022-09-09T02:29:49;101086.19;;;5.51;78.69
73525;BME280;61776;56.194;44.160;2022-09-09T02:32:22;101090.56;;;5.49;78.75
73525;BME280;61776;56.194;44.160;2022-09-09T02:34:53;101090.50;;;5.51;78.70
73525;BME280;61776;56.194;44.160;2022-09-09T02:37:24;101093.06;;;5.51;78.55
73525;BME280;61776;56.194;44.160;2022-09-09T02:39:55;101090.50;;;5.51;78.41
73525;BME280;61776;56.194;44.160;2022-09-09T02:42:23;101095.97;;;5.44;78.43
73525;BME280;61776;56.194;44.160;2022-09-09T02:44:51;101095.13;;;5.44;78.67
73525;BME280;61776;56.194;44.160;2022-09-09T02:55:38;101114.75;;;5.29;78.87
73525;BME280;61776;56.194;44.160;2022-09-09T02:58:09;101113.13;;;5.28;78.66
73525;BME280;61776;56.194;44.160;2022-09-09T03:00:38;101118.34;;;5.27;79.15
73525;BME280;61776;56.194;44.160;2022-09-09T03:03:09;101122.88;;;5.21;78.76
73525;BME280;61776;56.194;44.160;2022-09-09T03:05:37;101124.47;;;5.24;78.70
73525;BME280;61776;56.194;44.160;2022-09-09T03:08:04;101128.94;;;5.20;78.54
73525;BME280;61776;56.194;44.160;2022-09-09T03:10:36;101123.06;;;5.18;78.72
73525;BME280;61776;56.194;44.160;2022-09-09T03:13:03;101125.53;;;5.20;78.72
73525;BME280;61776;56.194;44.160;2022-09-09T03:15:34;101126.38;;;5.20;78.70
73525;BME280;61776;56.194;44.160;2022-09-09T03:18:00;101142.59;;;5.22;78.36
73525;BME280;61776;56.194;44.160;2022-09-09T03:20:28;101139.00;;;5.25;78.35
73525;BME280;61776;56.194;44.160;2022-09-09T03:22:56;101143.19;;;5.28;78.33
73525;BME280;61776;56.194;44.160;2022-09-09T03:25:22;101145.53;;;5.32;78.33
73525;BME280;61776;56.194;44.160;2022-09-09T03:27:51;101147.09;;;5.35;77.98
73525;BME280;61776;56.194;44.160;2022-09-09T03:30:25;101153.78;;;5.39;78.16
73525;BME280;61776;56.194;44.160;2022-09-09T03:32:54;101150.28;;;5.40;77.58
73525;BME280;61776;56.194;44.160;2022-09-09T03:35:22;101155.59;;;5.37;77.57
73525;BME280;61776;56.194;44.160;2022-09-09T03:37:48;101148.53;;;5.40;77.32
73525;BME280;61776;56.194;44.160;2022-09-09T03:40:15;101155.03;;;5.48;76.90
73525;BME280;61776;56.194;44.160;2022-09-09T03:42:43;101158.31;;;5.51;76.43
73525;BME280;61776;56.194;44.160;2022-09-09T03:45:09;101158.66;;;5.61;76.72
73525;BME280;61776;56.194;44.160;2022-09-09T03:47:38;101155.03;;;5.65;76.31
73525;BME280;61776;56.194;44.160;2022-09-09T03:50:07;101154.78;;;5.70;75.76
73525;BME280;61776;56.194;44.160;2022-09-09T03:52:37;101162.44;;;5.71;76.20
73525;BME280;61776;56.194;44.160;2022-09-09T03:55:07;101167.22;;;5.79;75.55
73525;BME280;61776;56.194;44.160;2022-09-09T03:57:34;101171.06;;;5.88;75.58
73525;BME280;61776;56.194;44.160;2022-09-09T04:00:07;101180.16;;;5.95;75.53
73525;BME280;61776;56.194;44.160;2022-09-09T04:02:42;101177.28;;;6.01;74.72
73525;BME280;61776;56.194;44.160;2022-09-09T04:05:11;101177.66;;;5.93;74.13
73525;BME280;61776;56.194;44.160;2022-09-09T04:07:40;101177.66;;;5.93;74.74
73525;BME280;61776;56.194;44.160;2022-09-09T04:10:07;101191.44;;;5.92;74.23
73525;BME280;61776;56.194;44.160;2022-09-09T04:12:36;101188.78;;;5.94;74.29
73525;BME280;61776;56.194;44.160;2022-09-09T04:15:03;101186.47;;;5.89;73.89
73525;BME280;61776;56.194;44.160;2022-09-09T04:17:30;101178.78;;;5.88;73.63
73525;BME280;61776;56.194;44.160;2022-09-09T04:19:56;101193.13;;;5.93;74.47
73525;BME280;61776;56.194;44.160;2022-09-09T04:22:23;101193.50;;;6.03;73.79
73525;BME280;61776;56.194;44.160;2022-09-09T04:24:49;101197.34;;;6.12;73.08
73525;BME280;61776;56.194;44.160;2022-09-09T04:27:17;101198.34;;;6.25;72.95
73525;BME280;61776;56.194;44.160;2022-09-09T04:29:43;101202.44;;;6.29;72.69
73525;BME280;61776;56.194;44.160;2022-09-09T04:32:12;101202.63;;;6.42;72.57
73525;BME280;61776;56.194;44.160;2022-09-09T04:34:39;101206.19;;;6.55;72.39
73525;BME280;61776;56.194;44.160;2022-09-09T04:37:08;101208.34;;;6.63;71.26
73525;BME280;61776;56.194;44.160;2022-09-09T04:39:36;101216.69;;;6.68;72.01
73525;BME280;61776;56.194;44.160;2022-09-09T04:42:02;101214.59;;;6.75;71.11
73525;BME280;61776;56.194;44.160;2022-09-09T04:44:29;101217.91;;;6.77;70.79
73525;BME280;61776;56.194;44.160;2022-09-09T04:46:56;101216.84;;;6.81;70.43
73525;BME280;61776;56.194;44.160;2022-09-09T04:49:22;101216.84;;;6.81;69.96
73525;BME280;61776;56.194;44.160;2022-09-09T04:51:49;101221.28;;;6.79;69.90
73525;BME280;61776;56.194;44.160;2022-09-09T04:54:16;101224.47;;;6.83;69.50
73525;BME280;61776;56.194;44.160;2022-09-09T04:56:43;101229.56;;;6.84;68.72
73525;BME280;61776;56.194;44.160;2022-09-09T04:59:10;101230.91;;;6.91;69.35
73525;BME280;61776;56.194;44.160;2022-09-09T05:01:42;101233.13;;;6.97;68.77
73525;BME280;61776;56.194;44.160;2022-09-09T05:04:10;101231.97;;;7.03;69.39
73525;BME280;61776;56.194;44.160;2022-09-09T05:06:39;101230.78;;;7.25;69.85
73525;BME280;61776;56.194;44.160;2022-09-09T05:09:05;101239.41;;;7.39;69.06
73525;BME280;61776;56.194;44.160;2022-09-09T05:11:32;101235.06;;;7.40;67.78
73525;BME280;61776;56.194;44.160;2022-09-09T05:14:20;101236.28;;;7.49;66.58
73525;BME280;61776;56.194;44.160;2022-09-09T05:16:46;101231.69;;;7.54;67.50
73525;BME280;61776;56.194;44.160;2022-09-09T05:19:13;101241.66;;;7.60;66.36
73525;BME280;61776;56.194;44.160;2022-09-09T05:21:49;101244.41;;;7.57;66.04
73525;BME280;61776;56.194;44.160;2022-09-09T05:24:19;101243.72;;;7.69;67.79
73525;BME280;61776;56.194;44.160;2022-09-09T05:26:47;101241.16;;;7.84;66.83
73525;BME280;61776;56.194;44.160;2022-09-09T05:29:14;101247.81;;;8.02;66.04
73525;BME280;61776;56.194;44.160;2022-09-09T05:31:40;101249.41;;;8.05;64.49
73525;BME280;61776;56.194;44.160;2022-09-09T05:34:10;101241.81;;;8.02;63.85
73525;BME280;61776;56.194;44.160;2022-09-09T05:36:38;101236.91;;;8.11;64.17
73525;BME280;61776;56.194;44.160;2022-09-09T05:39:04;101245.16;;;8.18;63.50
73525;BME280;61776;56.194;44.160;2022-09-09T05:41:32;101242.19;;;8.24;63.61
73525;BME280;61776;56.194;44.160;2022-09-09T05:44:01;101240.28;;;8.42;64.03
73525;BME280;61776;56.194;44.160;2022-09-09T05:46:27;101257.09;;;8.49;63.06
73525;BME280;61776;56.194;44.160;2022-09-09T05:48:54;101252.44;;;8.54;61.86
73525;BME280;61776;56.194;44.160;2022-09-09T05:51:28;101256.28;;;8.76;63.46
73525;BME280;61776;56.194;44.160;2022-09-09T05:54:01;101254.91;;;8.85;61.19
73525;BME280;61776;56.194;44.160;2022-09-09T05:56:31;101264.06;;;8.76;60.89
73525;BME280;61776;56.194;44.160;2022-09-09T05:58:59;101261.81;;;8.84;62.40
73525;BME280;61776;56.194;44.160;2022-09-09T06:01:29;101266.25;;;8.82;60.56
73525;BME280;61776;56.194;44.160;2022-09-09T06:03:57;101265.09;;;9.01;61.04
73525;BME280;61776;56.194;44.160;2022-09-09T06:06:26;101260.78;;;9.14;60.84
73525;BME280;61776;56.194;44.160;2022-09-09T06:08:55;101267.28;;;9.34;59.74
73525;BME280;61776;56.194;44.160;2022-09-09T06:11:26;101265.38;;;9.50;60.16
73525;BME280;61776;56.194;44.160;2022-09-09T06:13:52;101261.84;;;9.64;59.78
73525;BME280;61776;56.194;44.160;2022-09-09T06:16:22;101275.66;;;9.78;57.80
73525;BME280;61776;56.194;44.160;2022-09-09T06:18:50;101276.09;;;9.84;58.12
73525;BME280;61776;56.194;44.160;2022-09-09T06:21:20;101276.91;;;9.85;58.84
73525;BME280;61776;56.194;44.160;2022-09-09T06:23:47;101275.56;;;9.92;58.84
73525;BME280;61776;56.194;44.160;2022-09-09T06:26:21;101274.53;;;10.07;58.18
73525;BME280;61776;56.194;44.160;2022-09-09T06:28:50;101279.72;;;10.20;57.84
73525;BME280;61776;56.194;44.160;2022-09-09T06:31:23;101291.56;;;9.99;58.22
73525;BME280;61776;56.194;44.160;2022-09-09T06:33:51;101292.50;;;9.98;57.45
73525;BME280;61776;56.194;44.160;2022-09-09T06:36:20;101296.00;;;9.97;58.00
73525;BME280;61776;56.194;44.160;2022-09-09T06:38:47;101302.94;;;9.70;57.29
73525;BME280;61776;56.194;44.160;2022-09-09T06:41:16;101303.56;;;9.74;59.40
73525;BME280;61776;56.194;44.160;2022-09-09T06:43:45;101306.16;;;9.74;57.27
73525;BME280;61776;56.194;44.160;2022-09-09T06:48:46;101296.44;;;9.90;56.29
73525;BME280;61776;56.194;44.160;2022-09-09T06:51:18;101296.13;;;9.95;57.55
73525;BME280;61776;56.194;44.160;2022-09-09T06:53:49;101297.47;;;10.14;57.53
73525;BME280;61776;56.194;44.160;2022-09-09T06:58:43;101289.28;;;10.82;55.06
73525;BME280;61776;56.194;44.160;2022-09-09T07:01:24;101296.28;;;11.06;55.35
73525;BME280;61776;56.194;44.160;2022-09-09T07:03:52;101293.31;;;11.59;53.54
73525;BME280;61776;56.194;44.160;2022-09-09T07:06:22;101299.50;;;12.16;52.54
73525;BME280;61776;56.194;44.160;2022-09-09T07:08:52;101298.91;;;12.46;49.38
73525;BME280;61776;56.194;44.160;2022-09-09T07:11:20;101304.00;;;12.70;51.10
73525;BME280;61776;56.194;44.160;2022-09-09T07:13:47;101308.69;;;12.88;50.28
73525;BME280;61776;56.194;44.160;2022-09-09T07:16:16;101305.53;;;12.73;51.08
73525;BME280;61776;56.194;44.160;2022-09-09T07:18:42;101309.44;;;12.22;50.79
73525;BME280;61776;56.194;44.160;2022-09-09T07:21:13;101308.38;;;12.13;51.50
73525;BME280;61776;56.194;44.160;2022-09-09T07:23:41;101305.19;;;11.85;51.72
73525;BME280;61776;56.194;44.160;2022-09-09T07:26:12;101313.59;;;11.42;50.70
73525;BME280;61776;56.194;44.160;2022-09-09T07:28:39;101317.88;;;11.19;53.16
73525;BME280;61776;56.194;44.160;2022-09-09T07:31:07;101320.41;;;11.32;52.96
73525;BME280;61776;56.194;44.160;2022-09-09T07:33:34;101320.28;;;11.58;51.67
73525;BME280;61776;56.194;44.160;2022-09-09T07:36:09;101318.31;;;11.37;51.46
73525;BME280;61776;56.194;44.160;2022-09-09T07:38:42;101326.34;;;10.97;53.00
73525;BME280;61776;56.194;44.160;2022-09-09T07:41:16;101325.22;;;10.52;53.77
73525;BME280;61776;56.194;44.160;2022-09-09T07:43:45;101325.53;;;10.21;53.67
73525;BME280;61776;56.194;44.160;2022-09-09T07:46:18;101329.38;;;10.16;54.73
73525;BME280;61776;56.194;44.160;2022-09-09T07:48:48;101327.38;;;10.58;54.38
73525;BME280;61776;56.194;44.160;2022-09-09T07:51:25;101323.31;;;11.03;52.92
73525;BME280;61776;56.194;44.160;2022-09-09T07:53:55;101327.03;;;11.12;51.24
73525;BME280;61776;56.194;44.160;2022-09-09T07:56:21;101330.94;;;10.94;50.48
73525;BME280;61776;56.194;44.160;2022-09-09T07:58:51;101329.88;;;11.09;50.43
73525;BME280;61776;56.194;44.160;2022-09-09T08:01:34;101333.25;;;11.22;50.16
73525;BME280;61776;56.194;44.160;2022-09-09T08:04:08;101329.88;;;11.69;50.95
73525;BME280;61776;56.194;44.160;2022-09-09T08:06:37;101321.16;;;12.05;50.58
73525;BME280;61776;56.194;44.160;2022-09-09T08:09:05;101328.75;;;12.53;49.69
73525;BME280;61776;56.194;44.160;2022-09-09T08:11:31;101327.47;;;12.59;49.08
73525;BME280;61776;56.194;44.160;2022-09-09T08:14:00;101334.88;;;12.07;44.68
73525;BME280;61776;56.194;44.160;2022-09-09T08:16:28;101332.22;;;11.60;45.73
73525;BME280;61776;56.194;44.160;2022-09-09T08:18:56;101335.81;;;11.35;48.23
73525;BME280;61776;56.194;44.160;2022-09-09T08:21:24;101339.22;;;11.36;47.75
73525;BME280;61776;56.194;44.160;2022-09-09T08:23:53;101337.75;;;11.56;47.76
73525;BME280;61776;56.194;44.160;2022-09-09T08:26:21;101340.81;;;11.85;48.82
73525;BME280;61776;56.194;44.160;2022-09-09T08:28:50;101334.69;;;12.44;47.74
73525;BME280;61776;56.194;44.160;2022-09-09T08:31:23;101336.00;;;13.16;47.71
73525;BME280;61776;56.194;44.160;2022-09-09T08:33:50;101341.19;;;13.27;44.15
73525;BME280;61776;56.194;44.160;2022-09-09T08:36:19;101341.88;;;13.29;43.08
73525;BME280;61776;56.194;44.160;2022-09-09T08:38:50;101332.56;;;13.15;44.84
73525;BME280;61776;56.194;44.160;2022-09-09T08:49:36;101345.22;;;10.75;48.25
73525;BME280;61776;56.194;44.160;2022-09-09T08:52:13;101351.53;;;10.84;50.68
73525;BME280;61776;56.194;44.160;2022-09-09T08:54:41;101341.50;;;11.03;50.37
73525;BME280;61776;56.194;44.160;2022-09-09T08:57:14;101352.03;;;11.50;49.39
73525;BME280;61776;56.194;44.160;2022-09-09T08:59:44;101351.91;;;11.76;47.44
73525;BME280;61776;56.194;44.160;2022-09-09T09:07:21;101354.84;;;11.71;48.37
73525;BME280;61776;56.194;44.160;2022-09-09T09:10:01;101363.84;;;11.67;49.21
73525;BME280;61776;56.194;44.160;2022-09-09T09:12:43;101360.13;;;11.58;51.46
73525;BME280;61776;56.194;44.160;2022-09-09T09:15:24;101364.25;;;11.61;49.27
73525;BME280;61776;56.194;44.160;2022-09-09T09:17:53;101366.16;;;11.59;48.20
73525;BME280;61776;56.194;44.160;2022-09-09T09:20:50;101371.47;;;11.57;46.61
73525;BME280;61776;56.194;44.160;2022-09-09T09:23:21;101372.16;;;11.83;47.24
73525;BME280;61776;56.194;44.160;2022-09-09T09:25:48;101372.50;;;12.03;46.79
73525;BME280;61776;56.194;44.160;2022-09-09T09:28:17;101366.25;;;12.28;45.97
73525;BME280;61776;56.194;44.160;2022-09-09T09:30:54;101369.34;;;12.90;48.64
73525;BME280;61776;56.194;44.160;2022-09-09T09:33:49;101366.94;;;13.20;44.34
73525;BME280;61776;56.194;44.160;2022-09-09T09:36:17;101374.69;;;12.54;45.29
73525;BME280;61776;56.194;44.160;2022-09-09T09:38:57;101375.25;;;12.24;47.73
73525;BME280;61776;56.194;44.160;2022-09-09T09:44:00;101370.16;;;12.34;50.26
73525;BME280;61776;56.194;44.160;2022-09-09T09:46:28;101373.66;;;12.68;44.72
73525;BME280;61776;56.194;44.160;2022-09-09T09:49:05;101372.91;;;13.00;42.54
73525;BME280;61776;56.194;44.160;2022-09-09T09:51:32;101381.13;;;13.39;40.67
73525;BME280;61776;56.194;44.160;2022-09-09T09:54:09;101375.28;;;13.58;40.43
73525;BME280;61776;56.194;44.160;2022-09-09T09:56:40;101387.34;;;13.59;39.26
73525;BME280;61776;56.194;44.160;2022-09-09T10:01:46;101383.75;;;14.13;39.84
73525;BME280;61776;56.194;44.160;2022-09-09T10:04:22;101376.50;;;14.59;39.21
73525;BME280;61776;56.194;44.160;2022-09-09T10:06:53;101379.63;;;14.93;40.32
73525;BME280;61776;56.194;44.160;2022-09-09T10:09:26;101375.09;;;14.95;40.97
73525;BME280;61776;56.194;44.160;2022-09-09T10:12:19;101377.06;;;14.63;39.09
73525;BME280;61776;56.194;44.160;2022-09-09T10:20:58;101391.16;;;12.66;44.32
73525;BME280;61776;56.194;44.160;2022-09-09T10:26:13;101401.34;;;12.92;42.66
73525;BME280;61776;56.194;44.160;2022-09-09T10:36:53;101414.66;;;12.19;45.72
73525;BME280;61776;56.194;44.160;2022-09-09T10:39:36;101406.56;;;12.00;44.77
73525;BME280;61776;56.194;44.160;2022-09-09T10:42:06;101412.41;;;12.26;44.35
73525;BME280;61776;56.194;44.160;2022-09-09T10:53:31;101409.25;;;11.74;45.13
73525;BME280;61776;56.194;44.160;2022-09-09T10:56:08;101407.72;;;11.48;47.79
73525;BME280;61776;56.194;44.160;2022-09-09T10:58:53;101410.47;;;11.57;48.35
73525;BME280;61776;56.194;44.160;2022-09-09T11:01:51;101403.84;;;12.01;48.48
73525;BME280;61776;56.194;44.160;2022-09-09T11:04:26;101400.41;;;12.81;46.83
73525;BME280;61776;56.194;44.160;2022-09-09T11:07:00;101400.19;;;13.51;44.50
73525;BME280;61776;56.194;44.160;2022-09-09T11:09:33;101408.38;;;13.90;42.25
73525;BME280;61776;56.194;44.160;2022-09-09T11:12:02;101396.88;;;14.23;39.26
73525;BME280;61776;56.194;44.160;2022-09-09T11:17:11;101402.22;;;13.47;42.38
73525;BME280;61776;56.194;44.160;2022-09-09T11:19:41;101398.69;;;13.14;42.72
73525;BME280;61776;56.194;44.160;2022-09-09T11:25:15;101407.72;;;12.99;43.11
73525;BME280;61776;56.194;44.160;2022-09-09T11:36:31;101413.97;;;12.40;44.48
73525;BME280;61776;56.194;44.160;2022-09-09T11:41:50;101406.09;;;12.06;45.52
73525;BME280;61776;56.194;44.160;2022-09-09T11:44:30;101418.75;;;12.46;45.78
73525;BME280;61776;56.194;44.160;2022-09-09T11:46:56;101413.66;;;13.12;44.46
73525;BME280;61776;56.194;44.160;2022-09-09T11:51:53;101405.63;;;12.93;44.08
73525;BME280;61776;56.194;44.160;2022-09-09T11:54:32;101411.75;;;13.03;45.04
73525;BME280;61776;56.194;44.160;2022-09-09T11:56:59;101405.81;;;13.12;43.76
73525;BME280;61776;56.194;44.160;2022-09-09T11:59:27;101408.53;;;13.77;42.45
73525;BME280;61776;56.194;44.160;2022-09-09T12:02:17;101398.94;;;13.34;43.16
73525;BME280;61776;56.194;44.160;2022-09-09T12:04:55;101406.66;;;13.01;46.03
73525;BME280;61776;56.194;44.160;2022-09-09T12:07:36;101403.13;;;12.80;46.50
73525;BME280;61776;56.194;44.160;2022-09-09T12:17:41;101413.69;;;12.09;47.79
73525;BME280;61776;56.194;44.160;2022-09-09T12:20:15;101418.69;;;11.88;48.30
73525;BME280;61776;56.194;44.160;2022-09-09T12:26:02;101432.44;;;11.16;51.29
73525;BME280;61776;56.194;44.160;2022-09-09T12:31:10;101441.00;;;10.41;58.59
73525;BME280;61776;56.194;44.160;2022-09-09T12:33:44;101431.81;;;10.23;59.15
73525;BME280;61776;56.194;44.160;2022-09-09T12:36:27;101453.81;;;10.04;61.19
73525;BME280;61776;56.194;44.160;2022-09-09T12:38:57;101450.91;;;9.55;62.75
73525;BME280;61776;56.194;44.160;2022-09-09T12:41:27;101442.16;;;9.28;63.66
73525;BME280;61776;56.194;44.160;2022-09-09T12:44:09;101440.28;;;9.45;63.41
73525;BME280;61776;56.194;44.160;2022-09-09T12:46:39;101435.66;;;10.30;62.40
73525;BME280;61776;56.194;44.160;2022-09-09T12:51:52;101432.88;;;12.77;54.84
73525;BME280;61776;56.194;44.160;2022-09-09T12:54:19;101428.97;;;13.06;52.93
73525;BME280;61776;56.194;44.160;2022-09-09T12:56:47;101430.84;;;13.37;50.39
73525;BME280;61776;56.194;44.160;2022-09-09T12:59:35;101426.59;;;12.91;51.56
73525;BME280;61776;56.194;44.160;2022-09-09T13:02:01;101423.06;;;12.23;54.87
73525;BME280;61776;56.194;44.160;2022-09-09T13:04:27;101432.41;;;11.66;56.16
73525;BME280;61776;56.194;44.160;2022-09-09T13:06:53;101429.13;;;11.51;57.21
73525;BME280;61776;56.194;44.160;2022-09-09T13:09:19;101430.59;;;12.73;54.13
73525;BME280;61776;56.194;44.160;2022-09-09T13:11:49;101429.84;;;14.14;48.60
73525;BME280;61776;56.194;44.160;2022-09-09T13:14:28;101424.22;;;15.52;47.24
73525;BME280;61776;56.194;44.160;2022-09-09T13:16:58;101419.03;;;16.58;42.78
73525;BME280;61776;56.194;44.160;2022-09-09T13:19:24;101414.47;;;17.25;41.96
73525;BME280;61776;56.194;44.160;2022-09-09T13:21:55;101417.19;;;17.87;39.13
73525;BME280;61776;56.194;44.160;2022-09-09T13:24:28;101419.81;;;17.87;39.32
73525;BME280;61776;56.194;44.160;2022-09-09T13:26:57;101424.22;;;18.04;37.76
73525;BME280;61776;56.194;44.160;2022-09-09T13:29:24;101424.25;;;17.87;36.38
73525;BME280;61776;56.194;44.160;2022-09-09T13:31:50;101424.16;;;17.42;38.31
73525;BME280;61776;56.194;44.160;2022-09-09T13:34:32;101426.09;;;17.76;37.03
73525;BME280;61776;56.194;44.160;2022-09-09T13:37:02;101420.84;;;18.38;35.59
73525;BME280;61776;56.194;44.160;2022-09-09T13:39:33;101430.56;;;18.72;35.06
73525;BME280;61776;56.194;44.160;2022-09-09T13:42:01;101426.19;;;18.81;35.66
73525;BME280;61776;56.194;44.160;2022-09-09T13:44:31;101424.81;;;18.77;34.88
73525;BME280;61776;56.194;44.160;2022-09-09T13:49:32;101427.09;;;18.37;37.16
73525;BME280;61776;56.194;44.160;2022-09-09T13:52:13;101436.09;;;18.87;35.54
73525;BME280;61776;56.194;44.160;2022-09-09T13:54:40;101432.19;;;18.65;35.30
73525;BME280;61776;56.194;44.160;2022-09-09T13:57:15;101423.00;;;18.17;37.33
73525;BME280;61776;56.194;44.160;2022-09-09T13:59:42;101424.06;;;16.79;39.89
73525;BME280;61776;56.194;44.160;2022-09-09T14:02:08;101432.06;;;14.61;45.26
73525;BME280;61776;56.194;44.160;2022-09-09T14:04:34;101430.69;;;13.16;48.96
73525;BME280;61776;56.194;44.160;2022-09-09T14:07:01;101441.28;;;11.63;53.24
73525;BME280;61776;56.194;44.160;2022-09-09T14:09:27;101440.41;;;11.02;56.52
73525;BME280;61776;56.194;44.160;2022-09-09T14:11:53;101436.34;;;10.34;58.26
73525;BME280;61776;56.194;44.160;2022-09-09T14:14:20;101438.84;;;10.08;60.08
73525;BME280;61776;56.194;44.160;2022-09-09T14:16:46;101437.47;;;9.89;60.95
73525;BME280;61776;56.194;44.160;2022-09-09T14:19:12;101437.03;;;9.83;60.21
73525;BME280;61776;56.194;44.160;2022-09-09T14:21:38;101435.34;;;9.82;60.62
73525;BME280;61776;56.194;44.160;2022-09-09T14:24:04;101427.81;;;10.32;59.90
73525;BME280;61776;56.194;44.160;2022-09-09T14:26:31;101425.75;;;11.38;57.94
73525;BME280;61776;56.194;44.160;2022-09-09T14:28:57;101432.13;;;12.53;54.70
73525;BME280;61776;56.194;44.160;2022-09-09T14:31:24;101426.34;;;13.72;47.90
73525;BME280;61776;56.194;44.160;2022-09-09T14:33:50;101437.47;;;14.48;45.08
73525;BME280;61776;56.194;44.160;2022-09-09T14:36:16;101432.13;;;15.11;43.58
73525;BME280;61776;56.194;44.160;2022-09-09T14:38:42;101425.66;;;15.76;42.24
73525;BME280;61776;56.194;44.160;2022-09-09T14:41:10;101421.78;;;15.99;41.44
73525;BME280;61776;56.194;44.160;2022-09-09T14:43:40;101430.03;;;15.95;40.60
73525;BME280;61776;56.194;44.160;2022-09-09T14:46:10;101429.22;;;15.05;42.67
73525;BME280;61776;56.194;44.160;2022-09-09T14:48:36;101433.06;;;13.42;46.05
73525;BME280;61776;56.194;44.160;2022-09-09T14:51:06;101432.16;;;13.32;47.29
73525;BME280;61776;56.194;44.160;2022-09-09T14:53:32;101432.94;;;12.42;49.39
73525;BME280;61776;56.194;44.160;2022-09-09T14:56:12;101432.41;;;11.66;52.38
73525;BME280;61776;56.194;44.160;2022-09-09T14:58:38;101429.47;;;10.97;53.86
73525;BME280;61776;56.194;44.160;2022-09-09T15:01:07;101443.09;;;10.49;56.01
73525;BME280;61776;56.194;44.160;2022-09-09T15:03:33;101439.28;;;10.15;56.74
73525;BME280;61776;56.194;44.160;2022-09-09T15:06:08;101446.63;;;9.95;58.29
73525;BME280;61776;56.194;44.160;2022-09-09T15:08:39;101439.97;;;9.64;58.76
73525;BME280;61776;56.194;44.160;2022-09-09T15:11:06;101440.44;;;9.56;59.05
73525;BME280;61776;56.194;44.160;2022-09-09T15:13:36;101443.06;;;9.42;60.02
73525;BME280;61776;56.194;44.160;2022-09-09T15:16:14;101446.53;;;9.28;60.76
73525;BME280;61776;56.194;44.160;2022-09-09T15:18:42;101449.84;;;9.16;61.10
73525;BME280;61776;56.194;44.160;2022-09-09T15:21:14;101448.00;;;9.03;62.40
73525;BME280;61776;56.194;44.160;2022-09-09T15:23:41;101451.19;;;8.94;62.25
73525;BME280;61776;56.194;44.160;2022-09-09T15:26:07;101455.88;;;8.87;62.73
73525;BME280;61776;56.194;44.160;2022-09-09T15:28:36;101461.59;;;8.78;62.87
73525;BME280;61776;56.194;44.160;2022-09-09T15:31:09;101458.09;;;8.65;64.13